VVPB/HUI METAR and TAF weather

Enter ICAO airport designator
Station Type Date Time Source
VVPB METAR 2020/10/20 17:30 UTC NOAA

VVPB 201730Z 05008KT 7000 SCT015 BKN040 26/24 Q1013 NOSIG


Station Type Date Time Source
VVPB Decoded METAR 2020/10/20 17:30 UTC NOAA

Hue, Vietnam (VVPB) 16-24N 107-41E 17M
Oct 20, 2020 - 01:30 PM EDT / 2020.10.20 1730 UTC
Wind: from the NE (050 degrees) at 9 MPH (8 KT):0
Visibility: 4 mile(s):0
Sky conditions: mostly cloudy
Temperature: 78 F (26 C)
Dew Point: 75 F (24 C)
Relative Humidity: 88%
Pressure (altimeter): 29.91 in. Hg (1013 hPa)
ob: VVPB 201730Z 05008KT 7000 SCT015 BKN040 26/24 Q1013 NOSIG
cycle: 17

Station Type Date Time Source
VVPB TAF 2020/10/20 18:00 UTC NOAA

TAF VVPB 201700Z 2018/2118 27008KT 7000 SCT008 BKN040
TEMPO 2018/2101 3000 RA
TEMPO 2111/2118 3500 RA

Example: see airport list